createdAt,value
2023-06-28T00:00:43.791Z,99638.44
2023-06-28T00:03:12.415Z,99643.78
2023-06-28T00:05:39.243Z,99647.69
2023-06-28T00:08:06.078Z,99641.41
2023-06-28T00:10:32.614Z,99639.47
2023-06-28T00:12:59.246Z,99637.53
2023-06-28T00:15:25.797Z,99629.31
2023-06-28T00:17:53.077Z,99625.75
2023-06-28T00:20:19.846Z,99631.25
2023-06-28T00:22:46.493Z,99630.91
2023-06-28T00:25:13.051Z,99633.66
2023-06-28T00:27:39.672Z,99633.66
2023-06-28T00:30:06.957Z,99632.84
2023-06-28T00:32:33.593Z,99621.88
2023-06-28T00:35:00.235Z,99620.75
2023-06-28T00:37:26.910Z,99621.97
2023-06-28T00:39:53.663Z,99620.50
2023-06-28T00:42:20.270Z,99628.38
2023-06-28T00:44:46.962Z,99627.56
2023-06-28T00:47:14.822Z,99633.75
2023-06-28T00:49:43.057Z,99618.22
2023-06-28T00:52:11.919Z,99621.66
2023-06-28T00:54:39.160Z,99618.47
2023-06-28T00:57:06.353Z,99618.47
2023-06-28T00:59:33.400Z,99629.44
2023-06-28T01:02:00.176Z,99619.63
2023-06-28T01:04:26.769Z,99620.06
2023-06-28T01:07:00.887Z,99624.88
2023-06-28T01:09:29.349Z,99626.91
2023-06-28T01:11:57.966Z,99627.72
2023-06-28T01:14:25.663Z,99618.69
2023-06-28T01:16:56.366Z,99629.66
2023-06-28T01:19:25.829Z,99624.16
2023-06-28T01:21:56.869Z,99621.41
2023-06-28T01:24:24.465Z,99624.16
2023-06-28T01:26:53.317Z,99612.88
2023-06-28T01:29:22.957Z,99617.09
2023-06-28T01:31:53.966Z,99617.09
2023-06-28T01:34:23.514Z,99610.72
2023-06-28T01:36:53.012Z,99618.94
2023-06-28T01:39:20.851Z,99620.06
2023-06-28T01:41:48.126Z,99616.88
2023-06-28T01:44:15.396Z,99617.59
2023-06-28T01:46:42.587Z,99617.59
2023-06-28T01:49:09.304Z,99604.22
2023-06-28T01:51:36.755Z,99605.03
2023-06-28T01:54:04.807Z,99606.63
2023-06-28T01:56:31.613Z,99607.06
2023-06-28T01:58:58.259Z,99605.47
2023-06-28T02:01:25.028Z,99605.47
2023-06-28T02:03:51.769Z,99609.69
2023-06-28T02:06:19.226Z,99608.09
2023-06-28T02:08:45.825Z,99606.19
2023-06-28T02:11:12.496Z,99599.44
2023-06-28T02:13:39.099Z,99599.78
2023-06-28T02:16:05.756Z,99605.94
2023-06-28T02:18:32.587Z,99596.25
2023-06-28T02:20:59.317Z,99601.84
2023-06-28T02:23:25.900Z,99603.00
2023-06-28T02:25:52.535Z,99605.28
2023-06-28T02:28:20.620Z,99603.69
2023-06-28T02:30:47.756Z,99604.13
2023-06-28T02:33:14.539Z,99603.44
2023-06-28T02:35:41.286Z,99602.63
2023-06-28T02:38:07.839Z,99610.41
2023-06-28T02:40:35.623Z,99614.66
2023-06-28T02:43:02.295Z,99617.28
2023-06-28T02:45:28.901Z,99611.09
2023-06-28T02:47:55.567Z,99623.91
2023-06-28T02:50:22.185Z,99618.34
2023-06-28T02:52:48.726Z,99613.41
2023-06-28T02:55:15.396Z,99621.16
2023-06-28T02:57:41.940Z,99621.88
2023-06-28T03:00:09.163Z,99615.13
2023-06-28T03:02:35.874Z,99610.34
2023-06-28T03:05:02.510Z,99613.06
2023-06-28T03:07:29.275Z,99613.06
2023-06-28T03:09:55.909Z,99619.34
2023-06-28T03:12:22.482Z,99616.25
2023-06-28T03:14:50.005Z,99622.19
2023-06-28T03:17:18.819Z,99616.72
2023-06-28T03:19:45.364Z,99615.44
2023-06-28T03:22:12.019Z,99609.19
2023-06-28T03:24:38.614Z,99611.13
2023-06-28T03:27:05.632Z,99608.88
2023-06-28T03:29:32.303Z,99617.84
2023-06-28T03:31:58.922Z,99611.25
2023-06-28T03:34:25.529Z,99613.53
2023-06-28T03:37:02.750Z,99614.66
2023-06-28T03:39:31.454Z,99612.94
2023-06-28T03:41:58.066Z,99616.06
2023-06-28T03:44:24.647Z,99608.97
2023-06-28T03:46:51.222Z,99608.97
2023-06-28T03:49:17.831Z,99614.66
2023-06-28T03:51:44.482Z,99605.53
2023-06-28T03:54:11.085Z,99612.16
2023-06-28T03:56:37.701Z,99609.44
2023-06-28T03:59:04.518Z,99608.75
2023-06-28T04:01:31.201Z,99612.63
2023-06-28T04:03:57.851Z,99617.63
2023-06-28T04:06:24.498Z,99618.09
2023-06-28T04:08:51.335Z,99614.22
2023-06-28T04:11:17.875Z,99618.91
2023-06-28T04:13:44.433Z,99616.50
2023-06-28T04:16:11.222Z,99613.75
2023-06-28T04:18:37.809Z,99614.91
2023-06-28T04:21:04.427Z,99618.53
2023-06-28T04:23:31.080Z,99621.28
2023-06-28T04:25:59.221Z,99611.59
2023-06-28T04:28:26.646Z,99620.59
2023-06-28T04:30:53.313Z,99615.25
2023-06-28T04:33:23.598Z,99612.94
2023-06-28T04:35:53.235Z,99609.06
2023-06-28T04:38:21.955Z,99611.94
2023-06-28T04:40:48.663Z,99606.22
2023-06-28T04:43:15.713Z,99607.81
2023-06-28T04:45:42.881Z,99607.13
2023-06-28T04:48:09.807Z,99608.72
2023-06-28T04:50:38.146Z,99619.66
2023-06-28T04:53:07.645Z,99618.06
2023-06-28T04:55:36.264Z,99615.00
2023-06-28T04:58:04.125Z,99614.31
2023-06-28T05:00:31.345Z,99614.91
2023-06-28T05:02:59.041Z,99613.06
2023-06-28T05:05:26.108Z,99619.44
2023-06-28T05:07:54.333Z,99615.31
2023-06-28T05:10:22.662Z,99604.84
2023-06-28T05:12:51.464Z,99619.75
2023-06-28T05:15:18.352Z,99615.19
2023-06-28T05:17:45.405Z,99613.81
2023-06-28T05:20:13.602Z,99619.81
2023-06-28T05:22:49.240Z,99620.97
2023-06-28T05:25:16.381Z,99620.97
2023-06-28T05:27:43.127Z,99622.13
2023-06-28T05:30:10.321Z,99618.94
2023-06-28T05:32:37.038Z,99616.19
2023-06-28T05:35:06.512Z,99621.34
2023-06-28T05:37:33.175Z,99626.44
2023-06-28T05:39:59.836Z,99631.25
2023-06-28T05:42:26.417Z,99634.53
2023-06-28T05:44:52.946Z,99631.47
2023-06-28T05:47:20.791Z,99632.16
2023-06-28T05:49:47.571Z,99625.75
2023-06-28T05:52:14.145Z,99618.59
2023-06-28T05:54:40.755Z,99625.69
2023-06-28T05:57:07.517Z,99628.06
2023-06-28T05:59:34.262Z,99625.75
2023-06-28T06:02:00.972Z,99632.63
2023-06-28T06:04:27.583Z,99631.91
2023-06-28T06:06:54.285Z,99636.69
2023-06-28T06:09:21.616Z,99637.16
2023-06-28T06:11:48.198Z,99634.06
2023-06-28T06:14:14.978Z,99637.16
2023-06-28T06:16:41.516Z,99638.28
2023-06-28T06:19:08.110Z,99637.16
2023-06-28T06:21:34.670Z,99645.69
2023-06-28T06:24:02.526Z,99639.56
2023-06-28T06:26:29.135Z,99645.94
2023-06-28T06:28:55.747Z,99647.16
2023-06-28T06:31:22.522Z,99639.94
2023-06-28T06:33:49.264Z,99647.56
2023-06-28T06:36:16.273Z,99637.25
2023-06-28T06:38:42.835Z,99649.16
2023-06-28T06:41:09.448Z,99642.97
2023-06-28T06:43:36.185Z,99654.13
2023-06-28T06:46:02.825Z,99648.81
2023-06-28T06:48:29.399Z,99645.84
2023-06-28T06:50:55.992Z,99645.47
2023-06-28T06:53:22.893Z,99646.72
2023-06-28T06:55:49.595Z,99647.63
2023-06-28T06:58:16.210Z,99651.50
2023-06-28T07:00:43.020Z,99649.66
2023-06-28T07:03:09.895Z,99642.28
2023-06-28T07:05:36.535Z,99644.78
2023-06-28T07:08:03.160Z,99648.06
2023-06-28T07:10:29.799Z,99640.25
2023-06-28T07:12:56.459Z,99645.75
2023-06-28T07:15:23.252Z,99650.47
2023-06-28T07:17:52.200Z,99648.50
2023-06-28T07:20:19.028Z,99647.72
2023-06-28T07:22:45.651Z,99654.44
2023-06-28T07:25:12.677Z,99649.16
2023-06-28T07:27:39.453Z,99656.41
2023-06-28T07:30:08.457Z,99646.06
2023-06-28T07:32:35.460Z,99645.38
2023-06-28T07:35:02.146Z,99643.31
2023-06-28T07:37:28.832Z,99645.78
2023-06-28T07:39:55.411Z,99642.31
2023-06-28T07:42:22.025Z,99646.66
2023-06-28T07:44:48.664Z,99635.38
2023-06-28T07:47:15.341Z,99632.09
2023-06-28T07:49:42.021Z,99640.06
2023-06-28T07:52:09.339Z,99638.47
2023-06-28T07:54:36.294Z,99638.63
2023-06-28T07:57:03.091Z,99638.06
2023-06-28T07:59:29.741Z,99637.94
2023-06-28T08:01:56.898Z,99627.03
2023-06-28T08:04:24.243Z,99637.47
2023-06-28T08:06:51.012Z,99639.28
2023-06-28T08:09:17.893Z,99637.97
2023-06-28T08:11:44.550Z,99643.34
2023-06-28T08:14:11.208Z,99639.13
2023-06-28T08:16:37.789Z,99644.69
2023-06-28T08:19:04.401Z,99640.84
2023-06-28T08:21:31.015Z,99644.88
2023-06-28T08:23:58.029Z,99643.16
2023-06-28T08:26:24.661Z,99642.13
2023-06-28T08:28:59.992Z,99648.50
2023-06-28T08:31:27.522Z,99653.28
2023-06-28T08:33:54.246Z,99643.72
2023-06-28T08:36:20.839Z,99640.97
2023-06-28T08:38:47.561Z,99641.53
2023-06-28T08:41:16.886Z,99647.47
2023-06-28T08:43:49.524Z,99645.03
2023-06-28T08:46:16.298Z,99648.63
2023-06-28T08:48:45.018Z,99651.25
2023-06-28T08:51:11.735Z,99645.19
2023-06-28T08:53:39.045Z,99645.25
2023-06-28T08:56:06.012Z,99644.59
2023-06-28T08:58:34.264Z,99647.91
2023-06-28T09:01:01.117Z,99649.59
2023-06-28T09:03:30.822Z,99641.75
2023-06-28T09:05:57.512Z,99646.22
2023-06-28T09:08:24.419Z,99633.78
2023-06-28T09:10:51.129Z,99636.75
2023-06-28T09:13:20.942Z,99634.22
2023-06-28T09:15:48.784Z,99630.56
2023-06-28T09:18:16.662Z,99635.81
2023-06-28T09:20:51.252Z,99625.94
2023-06-28T09:23:29.101Z,99627.94
2023-06-28T09:25:56.465Z,99626.78
2023-06-28T09:28:24.925Z,99622.50
2023-06-28T09:30:57.978Z,99631.00
2023-06-28T09:33:25.258Z,99632.38
2023-06-28T09:36:03.382Z,99620.66
2023-06-28T09:38:30.097Z,99619.50
2023-06-28T09:40:58.115Z,99618.72
2023-06-28T09:43:25.363Z,99621.66
2023-06-28T09:45:55.360Z,99621.13
2023-06-28T09:48:26.709Z,99617.31
2023-06-28T09:50:53.563Z,99623.06
2023-06-28T09:53:22.617Z,99613.78
2023-06-28T09:55:51.614Z,99609.59
2023-06-28T09:58:19.864Z,99620.72
2023-06-28T10:00:48.449Z,99610.81
2023-06-28T10:03:21.611Z,99611.50
2023-06-28T10:05:49.466Z,99609.09
2023-06-28T10:08:17.481Z,99605.22
2023-06-28T10:10:46.008Z,99612.09
2023-06-28T10:13:31.681Z,99601.53
2023-06-28T10:16:06.530Z,99608.75
2023-06-28T10:18:33.261Z,99603.72
2023-06-28T10:21:01.345Z,99607.34
2023-06-28T10:23:28.083Z,99591.59
2023-06-28T10:25:56.225Z,99597.13
2023-06-28T10:28:23.247Z,99595.56
2023-06-28T10:30:51.257Z,99595.59
2023-06-28T10:33:18.745Z,99599.56
2023-06-28T10:35:46.031Z,99596.78
2023-06-28T10:38:13.652Z,99599.56
2023-06-28T10:40:40.591Z,99594.44
2023-06-28T10:43:07.393Z,99599.97
2023-06-28T10:45:38.937Z,99598.06
2023-06-28T10:48:05.821Z,99600.03
2023-06-28T10:50:43.264Z,99601.63
2023-06-28T10:53:30.349Z,99599.66
2023-06-28T10:56:13.909Z,99595.28
2023-06-28T10:58:45.346Z,99591.34
2023-06-28T11:01:14.274Z,99599.63
2023-06-28T11:03:43.174Z,99589.38
2023-06-28T11:06:12.120Z,99597.31
2023-06-28T11:08:40.250Z,99592.53
2023-06-28T11:11:09.033Z,99583.00
2023-06-28T11:13:43.441Z,99578.28
2023-06-28T11:16:17.233Z,99584.63
2023-06-28T11:18:44.121Z,99591.72
2023-06-28T11:21:16.517Z,99586.56
2023-06-28T11:23:45.878Z,99583.03
2023-06-28T11:26:17.890Z,99583.41
2023-06-28T11:28:52.373Z,99573.50
2023-06-28T11:31:26.360Z,99571.13
2023-06-28T11:33:57.912Z,99579.84
2023-06-28T11:36:25.981Z,99573.13
2023-06-28T11:38:53.232Z,99565.63
2023-06-28T11:41:20.032Z,99561.22
2023-06-28T11:43:47.828Z,99565.53
2023-06-28T11:46:23.564Z,99567.06
2023-06-28T11:48:51.869Z,99556.78
2023-06-28T11:51:18.530Z,99559.53
2023-06-28T11:53:50.310Z,99554.88
2023-06-28T11:56:17.168Z,99560.84
2023-06-28T11:58:44.088Z,99558.47
2023-06-28T12:01:21.589Z,99557.66
2023-06-28T12:03:48.457Z,99567.13
2023-06-28T12:06:15.204Z,99565.13
2023-06-28T12:08:42.385Z,99552.06
2023-06-28T12:11:10.262Z,99547.75
2023-06-28T12:13:37.122Z,99563.22
2023-06-28T12:16:20.101Z,99557.69
2023-06-28T12:18:58.436Z,99560.84
2023-06-28T12:21:27.026Z,99547.00
2023-06-28T12:23:54.271Z,99550.16
2023-06-28T12:26:25.751Z,99541.78
2023-06-28T12:28:52.511Z,99543.31
2023-06-28T12:31:19.255Z,99542.50
2023-06-28T12:33:53.409Z,99538.50
2023-06-28T12:36:20.438Z,99530.44
2023-06-28T12:38:47.350Z,99535.19
2023-06-28T12:41:15.349Z,99533.66
2023-06-28T12:43:43.318Z,99544.09
2023-06-28T12:46:11.801Z,99537.03
2023-06-28T12:48:38.734Z,99535.41
2023-06-28T12:51:05.397Z,99537.38
2023-06-28T12:53:34.741Z,99526.69
2023-06-28T12:56:01.418Z,99529.41
2023-06-28T12:58:28.055Z,99524.00
2023-06-28T13:00:54.672Z,99518.19
2023-06-28T13:03:23.198Z,99520.03
2023-06-28T13:05:50.117Z,99512.31
2023-06-28T13:08:16.801Z,99513.09
2023-06-28T13:10:43.542Z,99517.00
2023-06-28T13:13:10.377Z,99515.47
2023-06-28T13:15:37.731Z,99507.34
2023-06-28T13:18:04.986Z,99508.97
2023-06-28T13:20:31.641Z,99508.28
2023-06-28T13:22:58.273Z,99510.72
2023-06-28T13:25:27.390Z,99502.41
2023-06-28T13:27:54.028Z,99505.25
2023-06-28T13:30:21.968Z,99502.06
2023-06-28T13:32:48.726Z,99494.19
2023-06-28T13:35:15.451Z,99494.53
2023-06-28T13:37:42.813Z,99491.63
2023-06-28T13:40:09.840Z,99496.97
2023-06-28T13:42:36.462Z,99494.84
2023-06-28T13:45:03.214Z,99480.34
2023-06-28T13:47:29.815Z,99483.53
2023-06-28T13:49:57.198Z,99476.91
2023-06-28T13:52:23.774Z,99476.91
2023-06-28T13:54:50.430Z,99477.09
2023-06-28T13:57:17.062Z,99482.00
2023-06-28T13:59:43.732Z,99490.06
2023-06-28T14:02:10.426Z,99474.53
2023-06-28T14:04:37.061Z,99482.38
2023-06-28T14:07:03.876Z,99477.94
2023-06-28T14:09:30.566Z,99474.03
2023-06-28T14:11:57.622Z,99478.09
2023-06-28T14:14:25.349Z,99469.72
2023-06-28T14:16:51.988Z,99473.72
2023-06-28T14:19:18.703Z,99466.28
2023-06-28T14:21:45.263Z,99457.75
2023-06-28T14:24:13.329Z,99457.50
2023-06-28T14:26:40.009Z,99458.31
2023-06-28T14:29:07.289Z,99451.53
2023-06-28T14:31:34.050Z,99450.28
2023-06-28T14:34:00.674Z,99439.38
2023-06-28T14:36:27.288Z,99450.41
2023-06-28T14:38:53.904Z,99444.00
2023-06-28T14:41:20.504Z,99440.53
2023-06-28T14:43:47.386Z,99437.19
2023-06-28T14:46:15.240Z,99436.94
2023-06-28T14:48:42.034Z,99437.84
2023-06-28T14:51:08.623Z,99424.06
2023-06-28T14:53:37.463Z,99425.50
2023-06-28T14:56:05.693Z,99428.16
2023-06-28T14:58:32.590Z,99427.19
2023-06-28T15:00:59.164Z,99428.78
2023-06-28T15:03:25.893Z,99430.72
2023-06-28T15:05:52.602Z,99424.75
2023-06-28T15:08:19.211Z,99419.91
2023-06-28T15:10:45.861Z,99416.28
2023-06-28T15:13:12.414Z,99408.09
2023-06-28T15:15:39.091Z,99413.28
2023-06-28T15:18:05.794Z,99418.00
2023-06-28T15:20:40.247Z,99424.53
2023-06-28T15:23:10.544Z,99420.03
2023-06-28T15:25:37.379Z,99418.06
2023-06-28T15:28:04.429Z,99409.56
2023-06-28T15:30:31.038Z,99407.81
2023-06-28T15:32:57.754Z,99403.78
2023-06-28T15:35:24.387Z,99395.69
2023-06-28T15:37:51.154Z,99402.50
2023-06-28T15:40:17.748Z,99389.91
2023-06-28T15:42:44.371Z,99389.53
2023-06-28T15:45:11.436Z,99386.78
2023-06-28T15:47:38.386Z,99385.47
2023-06-28T15:50:05.531Z,99382.25
2023-06-28T15:52:32.163Z,99386.47
2023-06-28T15:55:01.193Z,99377.59
2023-06-28T15:57:28.045Z,99372.56
2023-06-28T15:59:54.863Z,99359.69
2023-06-28T16:02:22.150Z,99364.34
2023-06-28T16:04:48.931Z,99364.03
2023-06-28T16:07:16.528Z,99357.06
2023-06-28T16:09:43.124Z,99353.56
2023-06-28T16:12:09.890Z,99359.38
2023-06-28T16:14:36.852Z,99351.06
2023-06-28T16:17:04.468Z,99363.75
2023-06-28T16:19:31.510Z,99354.00
2023-06-28T16:21:58.231Z,99351.47
2023-06-28T16:24:25.086Z,99354.78
2023-06-28T16:26:51.654Z,99351.38
2023-06-28T16:29:18.248Z,99351.78
2023-06-28T16:31:44.901Z,99353.09
2023-06-28T16:34:11.551Z,99349.34
2023-06-28T16:36:42.225Z,99346.56
2023-06-28T16:39:09.672Z,99345.97
2023-06-28T16:41:36.543Z,99350.22
2023-06-28T16:44:03.215Z,99342.91
2023-06-28T16:46:29.848Z,99341.81
2023-06-28T16:48:56.472Z,99339.59
2023-06-28T16:51:23.132Z,99353.09
2023-06-28T16:53:49.795Z,99352.56
2023-06-28T16:56:16.840Z,99359.00
2023-06-28T16:58:43.477Z,99349.75
2023-06-28T17:01:10.159Z,99356.50
2023-06-28T17:03:42.138Z,99352.28
2023-06-28T17:06:12.640Z,99352.41
2023-06-28T17:08:39.275Z,99355.34
2023-06-28T17:11:05.882Z,99367.50
2023-06-28T17:13:32.524Z,99367.78
2023-06-28T17:16:00.404Z,99369.25
2023-06-28T17:18:27.071Z,99375.22
2023-06-28T17:20:54.179Z,99367.28
2023-06-28T17:23:22.649Z,99372.16
2023-06-28T17:25:49.561Z,99366.78
2023-06-28T17:28:16.320Z,99376.91
2023-06-28T17:30:43.261Z,99365.84
2023-06-28T17:33:10.189Z,99375.78
2023-06-28T17:35:36.917Z,99371.66
2023-06-28T17:38:03.590Z,99379.44
2023-06-28T17:40:30.258Z,99372.84
2023-06-28T17:42:56.906Z,99378.66
2023-06-28T17:45:23.465Z,99378.06
2023-06-28T17:47:50.146Z,99379.31
2023-06-28T17:50:16.818Z,99373.81
2023-06-28T17:52:43.497Z,99381.47
2023-06-28T17:55:10.377Z,99379.66
2023-06-28T17:57:37.012Z,99392.94
2023-06-28T18:00:05.554Z,99385.13
2023-06-28T18:02:32.377Z,99391.19
2023-06-28T18:04:58.957Z,99394.06
2023-06-28T18:07:25.753Z,99399.69
2023-06-28T18:09:52.886Z,99395.78
2023-06-28T18:12:19.546Z,99400.22
2023-06-28T18:14:46.104Z,99397.50
2023-06-28T18:17:12.743Z,99399.47
2023-06-28T18:19:40.420Z,99403.03
2023-06-28T18:22:07.172Z,99401.47
2023-06-28T18:24:35.095Z,99399.13
2023-06-28T18:27:01.712Z,99401.53
2023-06-28T18:29:28.437Z,99399.94
2023-06-28T18:31:55.045Z,99397.16
2023-06-28T18:34:21.693Z,99404.28
2023-06-28T18:36:48.257Z,99392.00
2023-06-28T18:39:18.820Z,99396.34
2023-06-28T18:41:45.704Z,99393.59
2023-06-28T18:44:12.314Z,99392.38
2023-06-28T18:46:39.193Z,99388.41
2023-06-28T18:49:05.812Z,99391.25
2023-06-28T18:51:36.062Z,99394.44
2023-06-28T18:54:03.837Z,99382.19
2023-06-28T18:56:31.575Z,99385.41
2023-06-28T18:58:58.700Z,99398.50
2023-06-28T19:01:25.360Z,99399.31
2023-06-28T19:03:52.055Z,99398.53
2023-06-28T19:06:18.737Z,99385.09
2023-06-28T19:08:45.279Z,99392.22
2023-06-28T19:11:12.174Z,99392.22
2023-06-28T19:13:40.393Z,99393.81
2023-06-28T19:16:07.048Z,99406.09
2023-06-28T19:18:34.599Z,99413.59
2023-06-28T19:21:02.663Z,99405.69
2023-06-28T19:23:29.758Z,99407.25
2023-06-28T19:25:56.463Z,99401.72
2023-06-28T19:28:23.009Z,99399.28
2023-06-28T19:30:49.868Z,99411.94
2023-06-28T19:33:16.979Z,99402.41
2023-06-28T19:35:44.583Z,99407.13
2023-06-28T19:38:11.353Z,99403.56
2023-06-28T19:40:37.958Z,99414.97
2023-06-28T19:43:04.623Z,99408.56
2023-06-28T19:45:31.629Z,99415.63
2023-06-28T19:47:58.449Z,99413.22
2023-06-28T19:50:26.037Z,99419.91
2023-06-28T19:52:52.715Z,99421.03
2023-06-28T19:55:19.323Z,99422.59
2023-06-28T19:57:46.067Z,99421.72
2023-06-28T20:00:14.040Z,99421.63
2023-06-28T20:02:42.180Z,99419.59
2023-06-28T20:05:09.456Z,99427.84
2023-06-28T20:07:36.186Z,99425.03
2023-06-28T20:10:03.586Z,99423.03
2023-06-28T20:12:30.221Z,99425.41
2023-06-28T20:14:56.945Z,99426.50
2023-06-28T20:17:23.531Z,99418.94
2023-06-28T20:19:50.137Z,99430.28
2023-06-28T20:22:16.769Z,99426.63
2023-06-28T20:24:43.356Z,99432.00
2023-06-28T20:27:10.652Z,99431.88
2023-06-28T20:29:37.312Z,99438.09
2023-06-28T20:32:04.363Z,99440.34
2023-06-28T20:34:31.093Z,99435.13
2023-06-28T20:36:57.913Z,99439.75
2023-06-28T20:39:24.579Z,99454.25
2023-06-28T20:41:51.480Z,99449.44
2023-06-28T20:44:18.214Z,99445.41
2023-06-28T20:46:45.022Z,99446.88
2023-06-28T20:49:12.637Z,99451.16
2023-06-28T20:51:39.283Z,99451.91
2023-06-28T20:54:05.865Z,99451.41
2023-06-28T20:56:32.495Z,99456.91
2023-06-28T20:58:59.251Z,99456.78
2023-06-28T21:01:27.866Z,99450.38
2023-06-28T21:03:55.443Z,99450.34
2023-06-28T21:06:22.119Z,99448.75
2023-06-28T21:08:48.691Z,99448.75
2023-06-28T21:11:16.581Z,99448.34
2023-06-28T21:13:43.459Z,99450.66
2023-06-28T21:16:10.123Z,99451.03
2023-06-28T21:18:37.082Z,99459.28
2023-06-28T21:21:03.847Z,99451.81
2023-06-28T21:23:30.493Z,99448.22
2023-06-28T21:25:57.190Z,99451.28
2023-06-28T21:28:23.818Z,99451.19
2023-06-28T21:30:50.368Z,99456.19
2023-06-28T21:33:16.896Z,99454.53
2023-06-28T21:35:43.790Z,99453.25
2023-06-28T21:38:10.682Z,99455.50
2023-06-28T21:40:37.380Z,99449.56
2023-06-28T21:43:03.945Z,99446.66
2023-06-28T21:45:30.529Z,99451.66
2023-06-28T21:47:57.176Z,99455.53
2023-06-28T21:50:24.139Z,99455.47
2023-06-28T21:52:50.886Z,99452.22
2023-06-28T21:55:17.461Z,99459.19
2023-06-28T21:57:44.092Z,99450.44
2023-06-28T22:00:28.591Z,99460.53
2023-06-28T22:02:56.196Z,99459.66
2023-06-28T22:05:23.644Z,99450.09
2023-06-28T22:07:52.472Z,99447.56
2023-06-28T22:10:20.817Z,99451.41
2023-06-28T22:12:48.451Z,99451.28
2023-06-28T22:15:16.964Z,99448.41
2023-06-28T22:17:43.708Z,99446.31
2023-06-28T22:20:10.653Z,99443.84
2023-06-28T22:22:37.444Z,99448.09
2023-06-28T22:25:05.288Z,99440.50
2023-06-28T22:27:31.913Z,99440.38
2023-06-28T22:29:58.935Z,99449.69
2023-06-28T22:32:25.540Z,99441.75
2023-06-28T22:34:52.124Z,99436.97
2023-06-28T22:37:18.695Z,99440.88
2023-06-28T22:39:45.305Z,99445.47
2023-06-28T22:42:11.966Z,99439.84
2023-06-28T22:44:38.545Z,99433.44
2023-06-28T22:47:05.234Z,99435.31
2023-06-28T22:49:33.207Z,99433.31
2023-06-28T22:52:00.290Z,99430.03
2023-06-28T22:54:28.088Z,99428.38
2023-06-28T22:56:55.049Z,99427.47
2023-06-28T22:59:24.752Z,99432.09
2023-06-28T23:01:51.999Z,99437.16
2023-06-28T23:04:19.121Z,99437.53
2023-06-28T23:06:45.747Z,99429.19
2023-06-28T23:09:12.404Z,99434.31
2023-06-28T23:11:38.980Z,99428.06
2023-06-28T23:14:05.957Z,99419.81
2023-06-28T23:16:34.672Z,99417.06
2023-06-28T23:19:03.712Z,99422.56
2023-06-28T23:21:34.650Z,99418.56
2023-06-28T23:24:03.413Z,99424.44
2023-06-28T23:26:30.939Z,99427.19
2023-06-28T23:28:58.278Z,99422.84
2023-06-28T23:31:25.656Z,99421.25
2023-06-28T23:33:52.895Z,99420.44
2023-06-28T23:36:19.611Z,99418.84
2023-06-28T23:38:46.422Z,99414.53
2023-06-28T23:41:13.333Z,99415.34
2023-06-28T23:43:42.701Z,99412.59
2023-06-28T23:46:13.166Z,99409.84
2023-06-28T23:48:41.568Z,99403.91
2023-06-28T23:51:09.332Z,99411.25
2023-06-28T23:53:40.296Z,99406.47
2023-06-28T23:56:08.572Z,99411.09
2023-06-28T23:58:36.368Z,99417.28
